Loisir ou Compétition : Rejoignez un Club de la Fédération

Résultats

GP de Saint-Genis

LELEX

GS Hommes

Jury de Compétition

Délégué Technique :
BLANCHARD RAYMOND (MJ)
Arbitre :
LANZA GINO (MJ)
Assistant :
 
Dir. Epreuve :
VUARGNOZ CORINNE (MJ)

Caractéristiques de la Piste

Piste :
LES RHODOS
Départ :
1650
Arrivée :
1440
Dénivelé :
210
Homologation :
783/04/87

Manche 1

Nombre de Portes :
30
Heure de Départ :
9h30
Traceur :
CARLOD MARCEL (MJ)
Ouvreurs A :
LEGER FABRICE (MJ)
Ouvreurs B :
VUARGNOZ GUY (MJ)
Ouvreurs C :
GERIN THOMAS (SA)
Ouvreurs D :
GENEVOIS JEAN SEBASTI (SA)
Ouvreurs E :
 
Temps :
neige
Neige :
humide

Manche 2

Nombre de Portes :
29
Heure de Départ :
11h30
Traceur :
CARLOD MARCEL (MJ)
Ouvreurs A :
LEGER FABRICE (MJ)
Ouvreurs B :
VUARGNOZ GUY (MJ)
Ouvreurs C :
NINOT MICHEL (IF)
Ouvreurs D :
BESSON SYLVAIN (IF)
Ouvreurs E :
 
Température Départ :
 
Température Arrivée :
 

Pénalité Appliquée :
140.3900

Catégorie :
Pou->Min
Clt Dos Clt/Cat Code An Nom Prénom Com Club Tps M1 Tps M2 Tps Tot Pts
Classés
1 166 1/Min FFS2292261 1990 MICHEL ALEXIS MJ SC BELLEGARD 46.31 46.68 1:32.99 140.39
2 173 2/Min FFS2227377 1989 FROMENT MAXIME MJ SC J.GESSIEN 48.11 46.61 1:34.72 156.39
3 151 3/Min FFS2227821 1990 LANZA BRUNO MJ SC ST GENIS 48.66 46.31 1:34.97 158.70
4 168 4/Min FFS2193872 1990 DUFRESNE BAPTISTE MJ SC J.GESSIEN 48.18 47.67 1:35.85 166.84
5 153 5/Min FFS2227960 1990 LEHNERT JONATHAN MJ SC J.GESSIEN 48.23 47.82 1:36.05 168.69
6 115 1/Ben FFS2261436 1991 BILLON GRAND ROMAIN MJ SC J.GESSIEN 48.52 48.06 1:36.58 173.59
7 126 2/Ben FFS2227382 1991 MOUSSERON ALEXIS MJ SC J.GESSIEN 48.88 49.39 1:38.27 189.22
8 162 6/Min FFS2260880 1990 LONG HARRY MJ SC J.GESSIEN 49.60 49.15 1:38.75 193.66
9 96 3/Ben FFS2260907 1991 BILLUART TRISTAN MJ SC J.GESSIEN 49.93 49.23 1:39.16 197.45
10 127 4/Ben FFS2260936 1991 CORNEVIN JAN MJ SC ST GENIS 49.68 49.68 1:39.36 199.30
10 159 7/Min FFS2127531 1990 DE ROSA GIANNI MJ SC J.GESSIEN 49.80 49.56 1:39.36 199.30
12 175 8/Min FFS2227378 1989 CORJON THOMAS MJ SC J.GESSIEN 52.41 47.88 1:40.29 207.90
13 165 9/Min FFS2605324 1990 BERARD ANTONY MJ US OYONNAX 50.89 50.55 1:41.44 218.54
14 43 1/Pou FFS2260942 1993 HEMMER GUILLAUME MJ SC J.GESSIEN 50.57 51.26 1:41.83 222.15
15 45 2/Pou FFS2352454 1993 BARATCABAL CHARLES MJ SC J.GESSIEN 50.32 51.58 1:41.90 222.79
16 27 3/Pou FFS2322716 1993 SAGNE CYRIL MJ MTS JURA ML 50.86 51.37 1:42.23 225.84
16 128 5/Ben FFS2260937 1992 CORNEVIN ANTOINE MJ SC ST GENIS 51.87 50.36 1:42.23 225.84
18 148 10/Min FFS2227963 1990 GENTET JULES MJ SC J.GESSIEN 50.46 51.78 1:42.24 225.94
19 169 11/Min FFS2352850 1989 JOUVRAY QUENTIN MJ US OYONNAX 50.39 51.91 1:42.30 226.49
20 176 12/Min FFS2260867 1990 GIRARD MAXIME MJ SC J.GESSIEN 52.42 50.36 1:42.78 230.93
21 111 6/Ben FFS2292425 1992 MERRANT ANTOINE MJ SC J.GESSIEN 51.30 51.65 1:42.95 232.50
22 106 7/Ben FFS2260876 1992 GEERAERT THIBAULT MJ SC J.GESSIEN 51.64 51.32 1:42.96 232.60
23 93 8/Ben FFS2260885 1992 LEBLOND MAXIME MJ SC J.GESSIEN 51.19 52.13 1:43.32 235.93
24 44 4/Pou FFS2600535 1993 LANCON BASTIEN MJ SC LANCRANS 51.98 51.55 1:43.53 237.87
25 116 9/Ben FFS2160562 1991 COUDERT VALENTIN MJ SC J.GESSIEN 52.60 51.02 1:43.62 238.70
26 170 13/Min FFS2193883 1989 NICOLAS JULIEN MJ SC J.GESSIEN 52.59 51.16 1:43.75 239.90
27 147 14/Min FFS2260988 1989 COTTIER CLEMENT MJ SC LANCRANS 52.40 51.92 1:44.32 245.17
28 172 15/Min FFS2193947 1990 RENARD YOANN MJ SC ST GENIS 52.84 51.62 1:44.46 246.47
29 104 10/Ben FFS2352490 1992 DAUDE ULYSSE MJ SC J.GESSIEN 52.30 52.18 1:44.48 246.65
30 105 11/Ben FFS2227389 1992 MEDARD JIMMY MJ SC J.GESSIEN 52.61 51.93 1:44.54 247.21
31 120 12/Ben FFS2614188 1991 LABUSSIERE PIERRE MJ SC J.GESSIEN 53.88 51.04 1:44.92 250.72
32 35 5/Pou FFS2261434 1993 CLAPIER THOMAS MJ SC J.GESSIEN 53.08 52.51 1:45.59 256.92
33 119 13/Ben FFS2352616 1992 MENENDEZ MATHIAS MJ SC LANCRANS 53.52 52.18 1:45.70 257.94
34 154 16/Min FFS2322879 1989 SIMONETTI ROBIN MJ SC ST GENIS 53.46 53.13 1:46.59 266.17
35 124 14/Ben FFS2260919 1991 BELGY KEVIN MJ SC J.GESSIEN 53.67 53.12 1:46.79 268.02
36 49 6/Pou FFS2292452 1993 DUMONT GIRARD MARC MJ SC J.GESSIEN 53.87 54.31 1:48.18 280.87
37 150 17/Min FFS2292414 1990 MALAVALLON ALEXIS MJ SC J.GESSIEN 55.53 52.74 1:48.27 281.70
38 156 18/Min FFS2352855 1989 SCOLA ALEXANDRE MJ US OYONNAX 54.20 54.73 1:48.93 287.81
39 145 19/Min FFS2322483 1989 MOSTEIRO YOANN MJ SC J.GESSIEN 54.89 54.94 1:49.83 296.13
40 63 7/Pou FFS2352363 1993 GIROD FRANCK MJ SC BELLEGARD 55.48 54.38 1:49.86 296.41
41 117 15/Ben FFS2260913 1992 LEMAIRE THEO MJ SC J.GESSIEN 58.37 51.84 1:50.21 299.65
42 114 16/Ben FFS2603039 1992 KOTAMAKI LARI MJ SC J.GESSIEN 55.97 54.30 1:50.27 300.20
43 107 17/Ben FFS2227360 1992 DUBOUT ALEXIS MJ SC J.GESSIEN 54.92 55.83 1:50.75 304.64
44 161 20/Min FFS740116 1989 JAULET MATHIAS MJ SC J.GESSIEN 50.58 1:00.19 1:50.77 304.82
45 174 21/Min FFS2322523 1990 MENSA ULYSSE MJ SC J.GESSIEN 56.30 54.55 1:50.85 305.56
46 50 8/Pou FFS2260900 1993 NIVOU HUGO MJ SC J.GESSIEN 56.25 54.74 1:50.99 306.86
47 100 18/Ben FFS2322587 1991 BRUANT BENJAMIN MJ SC BELLEGARD 54.96 56.06 1:51.02 307.14
48 51 9/Pou FFS2322559 1993 SAKAMOTO TAKAKI MJ SC J.GESSIEN 54.96 56.63 1:51.59 312.41
49 94 19/Ben FFS2322822 1992 KOURNWSKY ALEXIS MJ US OYONNAX 55.67 56.02 1:51.69 313.33
50 60 10/Pou FFS2292905 1994 LACHAUX LOIC MJ SC J.GESSIEN 55.87 56.54 1:52.41 319.99
51 38 11/Pou FFS2292454 1993 DUFOURCQ ARNAUD MJ SC J.GESSIEN 56.56 56.03 1:52.59 321.66
52 122 20/Ben FFS2602852 1992 CHEVALLEY OLIVIER MJ SC J.GESSIEN 57.13 55.69 1:52.82 323.78
53 65 12/Pou FFS2292853 1993 GAGNEUR CEDRIC MJ SC ST GENIS 59.35 54.84 1:54.19 336.45
54 24 13/Pou FFS2604874 1994 SERVIANT LORIS MJ MTS JURA ML 56.09 58.84 1:54.93 343.30
55 62 14/Pou FFS2603675 1993 WICKETT BRANDON MJ SC J.GESSIEN 55.58 1:00.36 1:55.94 352.64
56 39 15/Pou FFS2616221 1994 JANICHON THOMAS MJ SC LANCRANS 57.94 58.23 1:56.17 354.77
57 28 16/Pou FFS2322874 1994 DUJOUX QUENTIN MJ SC ST GENIS 58.88 57.34 1:56.22 355.23
58 91 21/Ben FFS2352500 1991 MAHIEUX MARTIN MJ SC J.GESSIEN 58.26 58.17 1:56.43 357.17
59 125 22/Ben FFS2260912 1991 METAIS BENJAMIN MJ SC J.GESSIEN 59.52 57.41 1:56.93 361.79
60 101 23/Ben FFS2292769 1992 MORAIS PHILIPPE MJ SC ST GENIS 58.89 58.25 1:57.14 363.74
61 40 17/Pou FFS2352443 1994 FOURNIER AXEL MJ SC J.GESSIEN 58.06 59.47 1:57.53 367.34
62 23 18/Pou FFS2605820 1993 BENOIT REMI MJ SC J.GESSIEN 59.45 58.29 1:57.74 369.29
63 48 19/Pou FFS2292838 1993 PECORARO CYRIL MJ SC ST GENIS 1:02.02 55.89 1:57.91 370.86
64 46 20/Pou FFS2322522 1994 PAGEL HENRICK MJ SC J.GESSIEN 57.67 1:00.45 1:58.12 372.80
65 160 22/Min FFS2614041 1990 RUOTTE BENJAMIN MJ US OYONNAX 59.81 58.77 1:58.58 377.05
66 57 21/Pou FFS2292739 1993 WALDHAUSER SYLVAIN MJ SC J.GESSIEN 58.26 1:00.82 1:59.08 381.68
67 54 22/Pou FFS2260944 1993 BOZONET KILLIAN MJ SC J.GESSIEN 57.85 1:01.42 1:59.27 383.44
68 34 23/Pou FFS2292421 1994 MAGNIN SERAPHIN MJ SC ST GENIS 1:00.54 58.98 1:59.52 385.75
69 157 23/Min FFS2292481 1989 CHAMPLIAUD MARTIN MJ SC LANCRANS 1:02.21 57.61 1:59.82 388.52
70 56 24/Pou FFS2600211 1993 PELENC DORIAN MJ US OYONNAX 1:00.29 1:00.76 2:01.05 399.90
71 26 25/Pou FFS2615225 1993 CHARVET VINCENT MJ SC J.GESSIEN 55.88 1:05.52 2:01.40 403.13
72 33 26/Pou FFS2602385 1994 COLLIGNON GUILLAUME MJ SC ST GENIS 1:01.84 1:00.05 2:01.89 407.67
73 22 27/Pou FFS2603682 1993 BRET JONATHAN MJ SC J.GESSIEN 1:03.53 59.81 2:03.34 421.08
74 167 24/Min FFS2322490 1990 CHENEVAL ALLAN MJ SC J.GESSIEN 58.41 1:05.13 2:03.54 422.93
75 30 28/Pou FFS2618146 1993 BOYS THOMAS MJ SC J.GESSIEN 1:03.10 1:01.92 2:05.02 436.61
76 109 24/Ben FFS2616664 1991 PFANNER SIMON MJ SC J.GESSIEN 1:04.05 1:01.95 2:06.00 445.68
77 47 29/Pou FFS2618530 1994 ARDAIN ETIENNE MJ SC LANCRANS 1:03.64 1:02.45 2:06.09 446.51
78 53 30/Pou FFS2322558 1993 BLANC P BENOIT MJ SC J.GESSIEN 56.23 1:11.32 2:07.55 460.01
79 29 31/Pou FFS2617307 1993 MENZEL FELIX MJ SC J.GESSIEN 1:04.08 1:03.76 2:07.84 462.69
80 129 25/Ben FFS2261316 1991 HVALKOF ALEXANDER MJ SC ST GENIS 1:04.76 1:03.20 2:07.96 463.80
81 31 32/Pou FFS2605605 1994 [V]MANN MARCO MJ SC J.GESSIEN 1:05.44 1:03.90 2:09.34 476.57
82 66 33/Pou FFS2606053 1994 METAIS NICOLAS MJ SC J.GESSIEN 1:05.31 1:04.22 2:09.53 478.32
83 36 34/Pou FFS2322478 1993 PERRIER STEPHANE MJ SC J.GESSIEN 1:07.66 1:08.79 2:16.45 542.32
Abandons
25 FFS2616023 1993 LEE LOWAN MJ SC J.GESSIEN
32 FFS2322503 1994 PENVEN THOMAS MJ SC J.GESSIEN
37 FFS2600532 1993 COUTURIER CHARLY MJ SC LANCRANS 52.74
41 FFS2322877 1994 MAYOR JOVAN MJ SC ST GENIS 55.49
42 FFS2615285 1994 LAMBERT FLORENT MJ SC J.GESSIEN
52 FFS2617308 1993 MENZEL MORITZ MJ SC J.GESSIEN
58 FFS2616663 1993 PFANNER CEDRIC MJ SC J.GESSIEN 1:02.72
64 FFS2227401 1993 COLIN JULIEN MJ SC J.GESSIEN 51.40
90 FFS2193899 1991 MAGNIN FLORENT MJ SC ST GENIS
108 FFS2260865 1992 GIROUD YANN MJ SC J.GESSIEN
110 FFS2227380 1991 GROSFILLEY ARTHUR MJ SC J.GESSIEN
113 FFS2601866 1991 VAN GYSEGEM REMY MJ SC ST GENIS 59.08
146 FFS2614576 1990 MARTINS NICOLAS MJ SC ST GENIS
158 FFS2260714 1989 MICHEL YOANN MJ SC BELLEGARD 48.23
163 FFS2193873 1989 CLAPIER ROMAIN MJ SC J.GESSIEN 46.52
164 FFS2602708 1989 DRILLIEN MAXIME MJ SC J.GESSIEN 51.78
171 FFS2193889 1990 COLIN ADRIEN MJ SC J.GESSIEN
177 FFS2293470 1989 BERMOND TRISTAN MJ SC BELLEGARD
178 FFS2127633 1989 ROPRAZ NICOLAS MJ SC ST GENIS 47.41
Non partants
55 FFS2322498 1993 OSWALD VALENTIN MJ SC J.GESSIEN
59 FFS2614876 1994 LEMARD ANTHONY MJ SC ST GENIS
61 FFS2292367 1994 HANSSLER BENEDIKT MJ SC J.GESSIEN
92 FFS2618356 1992 KRAJEWSKI YANN MJ SC J.GESSIEN
95 FFS2227396 1991 THIEBAUT ARNAUD MJ SC J.GESSIEN
97 FFS2352981 1992 BRISET JULYAN MJ SC BELLEGARD
98 FFS2616666 1992 VOISIN JEREMY MJ SC J.GESSIEN
99 FFS2322561 1992 DUC GUILLAUME MJ MTS JURA ML
102 FFS2616811 1992 DEHIMAT GREGORY MJ SC BELLEGARD
103 FFS2292439 1992 BELLEVILLE JEREMY MJ SC J.GESSIEN
112 FFS2322357 1991 PERRIER LEO MJ SC BELLEGARD
118 FFS2260934 1992 HANSSLER LUIS MJ SC J.GESSIEN
121 FFS2616564 1992 MERMET VICTOR MJ US OYONNAX
123 FFS2352980 1992 MICHEL BAPTISTE MJ SC BELLEGARD
144 FFS2352913 1991 HERVET CHARLES MJ SC ST GENIS
149 FFS2227364 1990 BENOIT DAMIEN MJ SC J.GESSIEN
152 FFS2227848 1990 VAURS THEO MJ SC J.GESSIEN
155 FFS2292404 1990 NOGUERA ARTHUR MJ SC J.GESSIEN